Time;durP1;ratioP1;P1;durP2;ratioP2;P2;SDS_P1;SDS_P2;PMS_P1;PMS_P2;Temp;Humidity;BMP_temperature;BMP_pressure;BME280_temperature;BME280_humidity;BME280_pressure;Samples;Min_cycle;Max_cycle;Signal;HPM_P1;HPM_P2
2023/04/14 00:01:43;;;;;;;12.38;4.15;;;7.60;73.80;;;;;;5118113;28;20023;-59
2023/04/14 00:04:10;;;;;;;9.68;3.22;;;7.50;73.00;;;;;;5100129;28;20036;-59
2023/04/14 00:06:36;;;;;;;7.65;3.63;;;7.60;74.50;;;;;;5117558;28;20070;-59
2023/04/14 00:09:02;;;;;;;9.88;4.70;;;7.60;75.90;;;;;;5117624;28;20035;-59
2023/04/14 00:11:28;;;;;;;13.98;3.80;;;7.60;74.30;;;;;;5116820;28;20301;-59
2023/04/14 00:13:55;;;;;;;8.63;3.75;;;7.70;74.30;;;;;;5116571;28;20085;-58
2023/04/14 00:16:21;;;;;;;12.07;3.92;;;7.60;77.70;;;;;;5117431;28;20085;-59
2023/04/14 00:18:46;;;;;;;8.70;3.35;;;7.60;76.30;;;;;;5117393;28;20058;-59
2023/04/14 00:21:12;;;;;;;8.15;2.58;;;7.60;75.50;;;;;;5117972;28;20032;-59
2023/04/14 00:23:38;;;;;;;11.13;3.17;;;7.60;77.10;;;;;;5099703;28;20032;-59
2023/04/14 00:26:04;;;;;;;9.60;2.92;;;7.60;74.60;;;;;;5117326;28;20028;-58
2023/04/14 00:28:30;;;;;;;7.50;2.50;;;7.50;75.50;;;;;;5117481;28;20380;-58
2023/04/14 00:30:56;;;;;;;7.72;2.90;;;7.50;76.10;;;;;;5117274;28;20057;-58
2023/04/14 00:33:23;;;;;;;7.97;2.65;;;7.50;77.90;;;;;;5099786;28;20122;-61
2023/04/14 00:35:49;;;;;;;9.43;2.55;;;7.50;78.00;;;;;;5117156;28;20118;-59
2023/04/14 00:38:14;;;;;;;6.85;2.20;;;7.50;76.80;;;;;;5116418;28;20343;-59
2023/04/14 00:40:40;;;;;;;5.38;2.10;;;7.40;78.60;;;;;;5117222;28;20405;-59
2023/04/14 00:43:06;;;;;;;6.88;2.30;;;7.30;81.20;;;;;;5099449;28;20423;-59
2023/04/14 00:45:43;;;;;;;5.78;2.10;;;7.30;84.90;;;;;;5116374;28;20116;-59
2023/04/14 00:48:09;;;;;;;8.88;2.60;;;7.20;87.50;;;;;;5117424;28;20051;-59
2023/04/14 00:50:35;;;;;;;5.75;2.10;;;7.10;89.20;;;;;;5117207;28;20032;-59
2023/04/14 00:53:01;;;;;;;7.28;2.50;;;7.00;91.30;;;;;;5118615;28;20023;-59
2023/04/14 00:55:28;;;;;;;8.25;2.70;;;7.00;92.30;;;;;;5121221;28;20059;-59
2023/04/14 00:57:54;;;;;;;5.90;2.70;;;7.00;92.40;;;;;;5121176;28;20073;-59
2023/04/14 01:00:20;;;;;;;5.78;2.38;;;6.90;92.90;;;;;;5121588;28;20046;-59
2023/04/14 01:02:46;;;;;;;7.07;2.20;;;6.80;94.40;;;;;;5120202;28;20114;-59
2023/04/14 01:05:12;;;;;;;8.68;3.10;;;6.90;94.20;;;;;;5120981;28;20115;-59
2023/04/14 01:07:38;;;;;;;9.05;2.60;;;6.90;92.90;;;;;;5120175;28;20419;-59
2023/04/14 01:10:05;;;;;;;7.55;2.38;;;6.80;93.70;;;;;;5120897;28;20067;-59
2023/04/14 01:13:17;;;;;;;7.60;2.70;;;7.00;93.30;;;;;;5121136;28;20042;-59
2023/04/14 01:15:51;;;;;;;8.43;2.85;;;7.00;92.70;;;;;;5102822;28;20416;-59
2023/04/14 01:18:34;;;;;;;7.47;2.47;;;7.00;92.40;;;;;;5120731;28;20315;-58
2023/04/14 01:21:16;;;;;;;9.15;2.97;;;6.90;92.40;;;;;;5120799;28;20024;-59
2023/04/14 01:24:06;;;;;;;7.95;2.47;;;6.80;94.10;;;;;;5121018;28;20042;-58
2023/04/14 01:26:33;;;;;;;4.28;2.53;;;6.80;95.20;;;;;;5120638;28;20036;-59
2023/04/14 01:29:17;;;;;;;8.30;2.30;;;6.80;95.20;;;;;;5119687;28;20089;-59
2023/04/14 01:32:11;;;;;;;6.35;2.72;;;6.80;94.60;;;;;;5119731;28;20122;-59
2023/04/14 01:34:50;;;;;;;5.82;2.60;;;6.80;94.70;;;;;;5120366;28;20035;-60
2023/04/14 01:37:28;;;;;;;8.00;2.83;;;6.70;96.00;;;;;;5120672;28;20023;-59
2023/04/14 01:40:00;;;;;;;7.70;2.35;;;6.60;96.60;;;;;;5119535;28;20019;-59
2023/04/14 01:42:31;;;;;;;8.40;2.13;;;6.50;97.30;;;;;;5120575;28;20308;-59
2023/04/14 01:45:05;;;;;;;4.57;2.37;;;6.50;98.50;;;;;;5119308;27;20310;-59
2023/04/14 01:47:31;;;;;;;6.82;3.03;;;6.50;98.80;;;;;;5120275;28;20280;-59
2023/04/14 01:49:59;;;;;;;6.72;2.53;;;6.50;98.80;;;;;;5120014;28;20034;-59
2023/04/14 01:52:27;;;;;;;7.65;2.83;;;6.60;98.40;;;;;;5119323;28;20092;-59
2023/04/14 01:54:54;;;;;;;4.68;2.30;;;6.60;97.90;;;;;;5120047;28;20080;-59
2023/04/14 01:57:22;;;;;;;4.88;2.20;;;6.60;97.80;;;;;;5120445;28;20059;-60
2023/04/14 01:59:51;;;;;;;6.53;2.63;;;6.60;98.30;;;;;;5119137;28;20262;-59
2023/04/14 02:02:18;;;;;;;9.23;2.58;;;6.70;97.90;;;;;;5119087;28;20110;-59
2023/04/14 02:04:45;;;;;;;8.18;2.20;;;6.70;97.60;;;;;;5118690;28;20094;-59
2023/04/14 02:07:12;;;;;;;8.07;2.50;;;6.60;97.40;;;;;;5119015;28;20077;-59
2023/04/14 02:09:40;;;;;;;6.38;2.55;;;6.50;98.10;;;;;;5120310;28;20035;-59
2023/04/14 02:12:10;;;;;;;6.28;2.00;;;6.50;99.20;;;;;;5118965;28;20032;-58
2023/04/14 02:14:39;;;;;;;7.53;2.13;;;6.40;99.50;;;;;;5101837;28;20100;-58
2023/04/14 02:17:08;;;;;;;9.50;2.40;;;6.30;99.90;;;;;;5119509;28;20028;-58
2023/04/14 02:19:35;;;;;;;8.13;2.05;;;6.30;99.90;;;;;;5102213;28;20035;-59
2023/04/14 02:22:02;;;;;;;6.22;2.33;;;6.30;99.90;;;;;;5119825;28;20385;-59
2023/04/14 02:24:29;;;;;;;5.18;2.15;;;6.30;99.90;;;;;;5118585;28;20103;-59
2023/04/14 02:27:12;;;;;;;6.30;2.20;;;6.30;99.90;;;;;;5120035;27;20027;-59
2023/04/14 02:29:46;;;;;;;9.27;2.38;;;6.40;99.90;;;;;;5119526;28;20039;-59
2023/04/14 02:32:20;;;;;;;7.82;2.40;;;6.30;99.70;;;;;;5118630;28;20474;-59
2023/04/14 02:35:02;;;;;;;8.25;2.50;;;6.40;99.40;;;;;;5119337;28;20069;-58
2023/04/14 02:37:34;;;;;;;8.50;2.40;;;6.40;97.70;;;;;;5119713;28;20130;-58
2023/04/14 02:40:06;;;;;;;6.45;2.15;;;6.40;98.70;;;;;;5101426;28;20035;-59
2023/04/14 02:42:35;;;;;;;4.73;2.10;;;6.30;99.50;;;;;;5119169;28;20027;-59
2023/04/14 02:45:08;;;;;;;7.65;2.40;;;6.30;99.90;;;;;;5119565;28;20051;-59
2023/04/14 02:47:43;;;;;;;5.20;1.88;;;6.40;99.00;;;;;;5118254;28;20042;-59
2023/04/14 02:50:13;;;;;;;7.00;2.55;;;6.40;98.60;;;;;;5118266;28;20423;-59
2023/04/14 02:52:46;;;;;;;6.00;2.30;;;6.40;98.40;;;;;;5118259;28;20338;-59
2023/04/14 02:55:13;;;;;;;4.38;1.92;;;6.40;98.30;;;;;;5101020;28;20043;-59
2023/04/14 02:57:39;;;;;;;5.53;2.20;;;6.40;97.80;;;;;;5118185;28;20035;-59
2023/04/14 03:00:07;;;;;;;5.50;2.15;;;6.40;97.40;;;;;;5117961;28;20031;-59
2023/04/14 03:02:40;;;;;;;5.43;2.50;;;6.40;97.00;;;;;;5086042;28;20355;-59
2023/04/14 03:05:08;;;;;;;5.95;2.15;;;6.30;98.20;;;;;;5117830;28;20030;-59
2023/04/14 03:08:03;;;;;;;6.97;2.25;;;6.30;97.50;;;;;;5114735;27;20416;-59
2023/04/14 03:10:30;;;;;;;5.00;1.90;;;6.30;97.70;;;;;;5100927;28;20028;-59
2023/04/14 03:12:59;;;;;;;5.68;2.10;;;6.30;97.60;;;;;;5117787;28;20023;-59
2023/04/14 03:15:25;;;;;;;7.63;2.20;;;6.20;97.90;;;;;;5083236;28;20028;-59
2023/04/14 03:17:55;;;;;;;5.72;2.45;;;6.20;98.50;;;;;;5118413;28;20073;-59
2023/04/14 03:20:22;;;;;;;6.97;2.38;;;6.10;99.70;;;;;;5101446;28;20083;-59
2023/04/14 03:23:03;;;;;;;6.53;2.38;;;6.10;99.90;;;;;;5117753;28;20396;-59
2023/04/14 03:25:36;;;;;;;8.20;2.45;;;6.10;99.00;;;;;;5117627;28;20032;-59
2023/04/14 03:28:12;;;;;;;6.82;2.40;;;6.10;99.60;;;;;;5117384;28;20027;-60
2023/04/14 03:30:45;;;;;;;8.63;2.60;;;6.10;99.10;;;;;;5100738;28;20023;-59
2023/04/14 03:33:17;;;;;;;9.57;6.07;;;6.00;99.10;;;;;;5117080;28;20039;-59
2023/04/14 03:35:45;;;;;;;11.98;5.65;;;5.90;99.90;;;;;;5117988;28;20032;-59
2023/04/14 03:38:14;;;;;;;7.10;3.10;;;5.90;99.90;;;;;;5117242;28;20027;-59
2023/04/14 03:40:45;;;;;;;7.18;2.67;;;6.00;99.90;;;;;;5117930;28;20027;-59
2023/04/14 03:43:18;;;;;;;8.68;2.75;;;5.90;99.90;;;;;;5100603;28;20038;-58
2023/04/14 03:45:48;;;;;;;5.60;2.38;;;5.80;99.90;;;;;;5117198;28;20419;-59
2023/04/14 03:48:17;;;;;;;6.32;2.63;;;5.90;99.90;;;;;;5117054;28;20042;-59
2023/04/14 03:50:48;;;;;;;8.93;2.65;;;5.80;99.90;;;;;;5117075;28;20047;-59
2023/04/14 03:53:17;;;;;;;6.93;2.80;;;5.80;99.90;;;;;;5116999;28;20028;-59
2023/04/14 03:55:45;;;;;;;5.65;2.53;;;5.80;99.90;;;;;;5116901;28;20055;-59
2023/04/14 03:58:14;;;;;;;6.57;2.75;;;5.80;99.90;;;;;;5116942;28;20027;-59
2023/04/14 04:00:42;;;;;;;7.32;2.78;;;5.80;99.90;;;;;;5100076;28;20380;-59
2023/04/14 04:03:09;;;;;;;6.82;2.97;;;5.80;99.90;;;;;;5116857;28;20030;-59
2023/04/14 04:05:39;;;;;;;9.98;3.38;;;5.80;99.90;;;;;;5117665;27;20043;-58
2023/04/14 04:08:07;;;;;;;5.72;2.90;;;5.80;99.90;;;;;;5117289;28;20024;-58
2023/04/14 04:10:34;;;;;;;7.03;3.58;;;5.80;99.90;;;;;;5117834;28;20039;-58
2023/04/14 04:13:02;;;;;;;4.88;2.92;;;5.80;99.90;;;;;;5116665;28;20096;-59
2023/04/14 04:15:30;;;;;;;5.07;2.90;;;5.70;99.90;;;;;;5116620;28;20384;-59
2023/04/14 04:18:00;;;;;;;9.77;3.25;;;5.70;99.90;;;;;;5116638;28;20035;-59
2023/04/14 04:20:28;;;;;;;9.68;3.22;;;5.80;99.90;;;;;;5117043;28;20024;-59
2023/04/14 04:22:56;;;;;;;9.52;2.80;;;5.70;99.90;;;;;;5116632;28;20031;-59
2023/04/14 04:25:22;;;;;;;6.85;3.35;;;5.70;99.90;;;;;;5116642;28;20069;-59
2023/04/14 04:28:01;;;;;;;10.07;3.88;;;5.80;99.90;;;;;;5117715;28;20032;-59
2023/04/14 04:30:28;;;;;;;7.90;3.13;;;5.70;99.90;;;;;;5116518;28;20020;-59
2023/04/14 04:32:54;;;;;;;12.18;3.30;;;5.60;99.90;;;;;;5117671;28;20032;-59
2023/04/14 04:35:22;;;;;;;6.57;3.08;;;5.60;99.90;;;;;;5116340;28;20119;-59
2023/04/14 04:37:49;;;;;;;7.45;3.20;;;5.60;99.40;;;;;;5099503;28;20038;-59
2023/04/14 04:40:15;;;;;;;8.30;2.97;;;5.60;99.60;;;;;;5116694;28;20032;-59
2023/04/14 04:42:42;;;;;;;9.23;3.30;;;5.60;98.10;;;;;;5116640;28;20115;-59
2023/04/14 04:45:11;;;;;;;9.25;3.20;;;5.60;99.30;;;;;;5116149;28;20044;-58
2023/04/14 04:47:37;;;;;;;8.05;3.40;;;5.60;99.30;;;;;;5099408;28;20055;-59
2023/04/14 04:50:05;;;;;;;8.13;3.38;;;5.50;99.30;;;;;;5116038;28;20028;-59
2023/04/14 04:52:30;;;;;;;7.63;3.28;;;5.50;99.30;;;;;;5116983;28;20028;-59
2023/04/14 04:54:56;;;;;;;10.18;3.40;;;5.50;98.80;;;;;;5116903;28;20085;-59
2023/04/14 04:57:22;;;;;;;8.30;3.08;;;5.50;99.90;;;;;;5116900;28;20028;-59
2023/04/14 04:59:48;;;;;;;7.05;3.22;;;5.40;99.90;;;;;;5116997;28;20027;-59
2023/04/14 05:02:14;;;;;;;7.68;3.40;;;5.40;99.90;;;;;;5115972;28;20043;-59
2023/04/14 05:04:40;;;;;;;6.03;3.50;;;5.40;99.80;;;;;;5116142;28;20094;-59
2023/04/14 05:07:05;;;;;;;12.82;3.53;;;5.40;99.90;;;;;;5116824;28;20028;-59
2023/04/14 05:09:31;;;;;;;7.30;3.63;;;5.40;99.90;;;;;;5116821;28;20040;-60
2023/04/14 05:11:57;;;;;;;12.25;3.90;;;5.40;99.90;;;;;;5116492;28;20027;-60
2023/04/14 05:14:23;;;;;;;10.00;4.00;;;5.50;99.90;;;;;;5099830;28;20040;-59
2023/04/14 05:16:49;;;;;;;9.13;3.55;;;5.50;99.90;;;;;;5116708;28;20407;-59
2023/04/14 05:19:15;;;;;;;11.73;3.42;;;5.50;99.90;;;;;;5116065;28;20036;-59
2023/04/14 05:21:41;;;;;;;10.80;3.50;;;5.70;99.90;;;;;;5115956;28;20274;-59
2023/04/14 05:24:10;;;;;;;9.52;3.10;;;5.60;98.50;;;;;;5116055;28;20062;-59
2023/04/14 05:26:36;;;;;;;9.85;3.83;;;5.60;98.60;;;;;;5115995;28;20096;-59
2023/04/14 05:29:02;;;;;;;6.80;3.33;;;5.70;99.70;;;;;;5116642;28;20028;-59
2023/04/14 05:31:27;;;;;;;8.02;3.38;;;5.70;98.50;;;;;;5117136;28;20027;-59
2023/04/14 05:33:53;;;;;;;6.72;3.20;;;5.80;99.20;;;;;;5116697;28;20042;-59
2023/04/14 05:36:19;;;;;;;7.95;3.40;;;5.90;98.30;;;;;;5117166;28;20027;-59
2023/04/14 05:38:45;;;;;;;9.00;3.13;;;6.10;95.90;;;;;;5116475;28;20066;-59
2023/04/14 05:41:11;;;;;;;8.63;3.45;;;6.20;95.50;;;;;;5120439;28;20297;-59
2023/04/14 05:43:36;;;;;;;10.20;3.53;;;6.30;94.60;;;;;;5102515;28;20046;-59
2023/04/14 05:46:02;;;;;;;7.43;3.53;;;6.40;94.60;;;;;;5120326;28;20040;-59
2023/04/14 05:48:29;;;;;;;7.93;3.50;;;6.60;92.70;;;;;;5119619;28;20032;-59
2023/04/14 05:50:56;;;;;;;9.93;3.72;;;6.80;85.50;;;;;;5102407;28;20032;-59
2023/04/14 05:53:22;;;;;;;8.48;3.60;;;7.00;83.20;;;;;;5119300;28;20039;-59
2023/04/14 05:55:51;;;;;;;6.70;3.45;;;7.00;75.60;;;;;;5120044;28;20419;-59
2023/04/14 05:58:17;;;;;;;9.35;3.25;;;7.10;70.70;;;;;;5119965;28;20396;-59
2023/04/14 06:00:42;;;;;;;7.13;3.03;;;7.10;66.00;;;;;;5120623;28;20055;-59
2023/04/14 06:03:08;;;;;;;11.20;3.50;;;6.90;66.20;;;;;;5119232;28;20138;-59
2023/04/14 06:05:34;;;;;;;8.90;3.00;;;7.00;72.00;;;;;;5120469;28;20339;-59
2023/04/14 06:08:00;;;;;;;8.20;3.40;;;7.10;65.80;;;;;;5119047;28;20128;-59
2023/04/14 06:10:26;;;;;;;11.68;3.30;;;7.20;69.90;;;;;;5120366;27;20116;-59
2023/04/14 06:12:52;;;;;;;7.03;2.80;;;7.40;62.30;;;;;;5119722;28;20028;-59
2023/04/14 06:15:17;;;;;;;10.98;3.28;;;7.40;54.20;;;;;;5119641;28;20063;-59
2023/04/14 06:17:46;;;;;;;9.52;3.47;;;7.20;56.60;;;;;;5119676;28;20024;-59
2023/04/14 06:20:12;;;;;;;6.95;3.05;;;7.00;67.30;;;;;;5119663;28;20031;-60
2023/04/14 06:22:39;;;;;;;9.75;3.28;;;7.10;67.60;;;;;;5119435;28;20023;-60
2023/04/14 06:25:05;;;;;;;7.72;3.63;;;7.10;70.60;;;;;;5119694;28;20343;-59
2023/04/14 06:27:31;;;;;;;7.85;3.67;;;7.10;68.10;;;;;;5119468;28;20116;-59
2023/04/14 06:29:58;;;;;;;7.10;3.38;;;6.90;74.00;;;;;;5119354;28;20031;-59
2023/04/14 06:32:24;;;;;;;10.88;3.25;;;7.10;75.80;;;;;;5101994;28;20369;-59
2023/04/14 06:34:50;;;;;;;6.45;3.53;;;7.00;75.90;;;;;;5119327;28;20077;-59
2023/04/14 06:37:16;;;;;;;10.27;3.72;;;7.00;74.70;;;;;;5101825;28;20427;-59
2023/04/14 06:39:42;;;;;;;10.75;3.40;;;7.00;75.20;;;;;;5119214;28;20271;-59
2023/04/14 06:42:11;;;;;;;8.23;3.13;;;7.10;81.50;;;;;;5119128;28;20039;-59
2023/04/14 06:44:38;;;;;;;9.20;3.10;;;7.30;76.50;;;;;;5118889;28;20173;-59
2023/04/14 06:47:04;;;;;;;9.38;3.30;;;8.20;59.80;;;;;;5119007;28;20282;-58
2023/04/14 06:49:30;;;;;;;8.05;2.83;;;8.00;48.60;;;;;;5118795;28;20042;-58
2023/04/14 06:51:56;;;;;;;10.68;2.78;;;7.80;49.90;;;;;;5100435;28;20031;-59
2023/04/14 06:54:22;;;;;;;10.07;2.97;;;7.80;53.10;;;;;;5118169;28;20039;-58
2023/04/14 06:56:48;;;;;;;6.55;3.17;;;7.70;54.10;;;;;;5118762;28;20379;-58
2023/04/14 06:59:14;;;;;;;8.60;3.15;;;7.50;62.30;;;;;;5117982;28;20036;-59
2023/04/14 07:01:40;;;;;;;13.43;3.35;;;7.60;65.10;;;;;;5118588;28;20027;-59
2023/04/14 07:04:06;;;;;;;7.95;2.95;;;7.60;60.60;;;;;;5118691;27;20028;-60
2023/04/14 07:06:35;;;;;;;8.88;3.15;;;7.70;64.80;;;;;;5118023;28;20059;-59
2023/04/14 07:09:01;;;;;;;5.90;2.70;;;7.70;59.40;;;;;;5118670;28;20066;-59
2023/04/14 07:11:28;;;;;;;4.65;2.75;;;8.00;59.10;;;;;;5118388;28;20070;-58
2023/04/14 07:13:54;;;;;;;7.78;3.00;;;8.20;51.60;;;;;;5118455;28;20325;-59
2023/04/14 07:16:20;;;;;;;5.07;2.90;;;8.20;45.80;;;;;;5118888;28;20047;-58
2023/04/14 07:18:46;;;;;;;5.95;2.80;;;8.20;54.40;;;;;;5118338;28;20039;-58
2023/04/14 07:21:11;;;;;;;5.75;2.45;;;8.40;49.90;;;;;;5117592;28;20042;-58
2023/04/14 07:23:38;;;;;;;5.40;2.35;;;8.50;38.40;;;;;;5118169;28;20100;-60
2023/04/14 07:26:04;;;;;;;4.50;2.40;;;8.40;43.20;;;;;;5117654;28;20043;-58
2023/04/14 07:28:31;;;;;;;6.35;2.10;;;8.50;40.00;;;;;;5118354;28;20024;-58
2023/04/14 07:30:57;;;;;;;9.82;2.70;;;8.30;47.30;;;;;;5118191;28;20031;-58
2023/04/14 07:33:23;;;;;;;6.10;1.92;;;8.20;56.80;;;;;;5118230;28;20039;-58
2023/04/14 07:35:49;;;;;;;7.47;2.40;;;8.20;55.60;;;;;;5118659;28;20278;-58
2023/04/14 07:38:16;;;;;;;4.70;2.00;;;8.30;61.00;;;;;;5118093;28;20020;-59
2023/04/14 07:40:41;;;;;;;6.28;2.20;;;8.50;57.30;;;;;;5117264;28;20477;-59
2023/04/14 07:43:07;;;;;;;8.18;2.40;;;8.70;48.40;;;;;;5118136;28;20036;-59
2023/04/14 07:45:33;;;;;;;6.32;1.98;;;8.70;42.60;;;;;;5117831;28;20044;-59
2023/04/14 07:47:59;;;;;;;4.03;1.70;;;8.80;39.10;;;;;;5117436;28;20032;-59
2023/04/14 07:50:25;;;;;;;4.28;1.60;;;8.90;38.40;;;;;;5117943;28;20015;-59
2023/04/14 07:52:58;;;;;;;8.38;1.65;;;9.00;38.20;;;;;;5117677;28;20365;-59
2023/04/14 07:55:24;;;;;;;3.78;1.45;;;9.10;35.50;;;;;;5117765;28;20044;-59
2023/04/14 07:57:50;;;;;;;3.67;1.33;;;9.10;21.40;;;;;;5117640;28;20040;-60
2023/04/14 08:00:16;;;;;;;3.53;1.55;;;9.10;24.80;;;;;;5118078;28;20039;-60
2023/04/14 08:02:41;;;;;;;3.75;1.50;;;9.20;21.50;;;;;;5117660;28;20031;-58
2023/04/14 08:05:08;;;;;;;3.42;1.40;;;9.20;22.30;;;;;;5100642;28;20092;-58
2023/04/14 08:07:34;;;;;;;6.20;1.75;;;9.30;24.70;;;;;;5117264;28;20296;-58
2023/04/14 08:10:00;;;;;;;3.65;1.25;;;9.40;16.30;;;;;;5116947;28;20334;-57
2023/04/14 08:12:25;;;;;;;3.25;1.30;;;9.40;25.40;;;;;;5100005;28;20023;-59
2023/04/14 08:14:52;;;;;;;3.47;1.50;;;9.50;11.00;;;;;;5118053;28;20031;-59
2023/04/14 08:17:18;;;;;;;3.95;1.65;;;9.60;15.40;;;;;;5117395;28;20082;-59
2023/04/14 08:19:45;;;;;;;3.45;1.40;;;9.80;8.20;;;;;;5116583;28;20036;-59
2023/04/14 08:22:11;;;;;;;4.90;1.20;;;9.80;1.00;;;;;;5117326;28;20019;-58
2023/04/14 08:24:37;;;;;;;3.65;1.10;;;9.80;1.00;;;;;;5117856;28;20065;-60
2023/04/14 08:27:03;;;;;;;3.33;1.55;;;9.90;4.80;;;;;;5116563;28;20046;-60
2023/04/14 08:29:29;;;;;;;4.35;1.30;;;10.10;1.00;;;;;;5117290;28;20346;-58
2023/04/14 08:31:54;;;;;;;5.25;1.40;;;10.30;1.00;;;;;;5099548;28;20024;-58
2023/04/14 08:34:21;;;;;;;2.35;1.08;;;10.50;1.00;;;;;;5117228;28;20036;-59
2023/04/14 08:36:46;;;;;;;3.58;1.20;;;10.60;1.00;;;;;;5117215;28;20047;-60
2023/04/14 08:39:14;;;;;;;3.28;1.13;;;10.70;1.00;;;;;;5116495;28;20024;-58
2023/04/14 08:41:41;;;;;;;3.35;1.20;;;10.80;1.00;;;;;;5117931;28;20047;-58
2023/04/14 08:44:07;;;;;;;3.30;1.10;;;10.80;1.00;;;;;;5116875;28;20044;-59
2023/04/14 08:46:34;;;;;;;4.78;1.00;;;10.90;1.00;;;;;;5117382;28;20278;-59
2023/04/14 08:49:05;;;;;;;3.13;1.25;;;10.90;1.00;;;;;;5116418;28;20096;-58
2023/04/14 08:51:35;;;;;;;3.25;1.10;;;10.90;1.00;;;;;;5116392;28;20355;-60
2023/04/14 08:54:11;;;;;;;3.95;1.00;;;11.00;1.00;;;;;;5117076;28;20030;-59
2023/04/14 08:56:40;;;;;;;1.85;0.77;;;11.10;1.00;;;;;;5116281;28;20047;-59
2023/04/14 08:59:08;;;;;;;3.00;0.70;;;11.20;1.00;;;;;;5116299;28;20309;-58
2023/04/14 09:01:35;;;;;;;4.65;1.05;;;11.10;1.00;;;;;;5116257;28;20046;-59
2023/04/14 09:04:05;;;;;;;3.03;0.90;;;11.10;1.00;;;;;;5116939;28;20050;-59
2023/04/14 09:06:31;;;;;;;3.95;1.15;;;11.30;1.00;;;;;;5116943;28;20028;-59
2023/04/14 09:08:59;;;;;;;2.33;0.70;;;11.50;1.00;;;;;;5116336;28;20031;-59
2023/04/14 09:11:26;;;;;;;3.50;1.00;;;11.60;1.00;;;;;;5099816;28;20019;-59
2023/04/14 09:13:52;;;;;;;3.35;0.90;;;11.70;1.00;;;;;;5117782;28;20492;-59
2023/04/14 09:16:18;;;;;;;1.65;0.70;;;11.80;1.00;;;;;;5120750;28;20296;-59
2023/04/14 09:18:45;;;;;;;2.63;0.75;;;11.80;1.00;;;;;;5103253;28;20027;-59
2023/04/14 09:21:11;;;;;;;2.55;1.00;;;11.90;1.00;;;;;;5120083;28;20070;-59
2023/04/14 09:23:40;;;;;;;3.50;1.02;;;12.10;1.00;;;;;;5119923;28;20055;-60
2023/04/14 09:26:09;;;;;;;4.05;0.80;;;12.20;1.00;;;;;;5120607;27;20416;-59
2023/04/14 09:28:35;;;;;;;3.10;0.68;;;12.20;1.00;;;;;;5121189;27;20412;-59
2023/04/14 09:31:02;;;;;;;3.97;0.65;;;12.20;1.00;;;;;;5120464;28;20039;-60
2023/04/14 09:33:28;;;;;;;0.90;0.57;;;12.40;1.00;;;;;;5120454;28;20027;-59
2023/04/14 09:35:54;;;;;;;3.10;0.88;;;12.60;1.00;;;;;;5120840;28;20122;-60
2023/04/14 09:38:37;;;;;;;6.82;3.10;;;12.60;1.00;;;;;;5102731;28;20042;-60
2023/04/14 09:41:06;;;;;;;2.17;1.15;;;12.70;1.00;;;;;;5120328;28;20397;-59
2023/04/14 09:43:32;;;;;;;3.88;0.98;;;12.60;1.00;;;;;;5120156;28;20027;-60
2023/04/14 09:46:04;;;;;;;3.53;0.80;;;12.70;1.00;;;;;;5120546;28;20035;-59
2023/04/14 09:48:30;;;;;;;2.60;0.80;;;13.00;1.00;;;;;;5120352;27;20136;-58
2023/04/14 09:51:08;;;;;;;5.13;0.98;;;13.20;1.00;;;;;;5119691;28;20117;-58
2023/04/14 09:53:36;;;;;;;2.35;0.90;;;12.80;1.00;;;;;;5069033;28;20038;-58
2023/04/14 09:56:08;;;;;;;2.85;1.00;;;12.70;1.00;;;;;;5120458;28;20077;-58
2023/04/14 09:58:42;;;;;;;3.03;0.80;;;12.70;1.00;;;;;;5119949;28;20297;-58
2023/04/14 10:01:16;;;;;;;2.88;0.70;;;12.60;1.00;;;;;;5119178;28;20023;-58
2023/04/14 10:03:47;;;;;;;3.58;1.10;;;12.90;1.00;;;;;;5119850;28;20106;-59
2023/04/14 10:06:13;;;;;;;4.47;0.75;;;13.40;1.00;;;;;;5119831;28;20039;-60
2023/04/14 10:08:41;;;;;;;1.95;0.60;;;13.70;1.00;;;;;;5119987;28;20046;-58
2023/04/14 10:11:18;;;;;;;3.03;0.70;;;13.50;1.00;;;;;;5119710;28;20043;-58
2023/04/14 10:13:46;;;;;;;3.22;0.80;;;13.20;1.00;;;;;;5119848;28;20069;-58
2023/04/14 10:16:12;;;;;;;2.30;0.77;;;13.00;1.00;;;;;;5119653;28;20062;-58
2023/04/14 10:18:38;;;;;;;1.67;0.70;;;12.90;1.00;;;;;;5118773;28;20114;-58
2023/04/14 10:21:05;;;;;;;3.08;0.70;;;13.00;99.90;;;;;;5118856;28;20369;-58
2023/04/14 10:23:31;;;;;;;1.42;0.50;;;13.30;1.00;;;;;;5119840;28;20392;-58
2023/04/14 10:25:58;;;;;;;2.05;0.60;;;13.60;99.90;;;;;;5118471;28;20027;-58
2023/04/14 10:28:25;;;;;;;3.22;0.70;;;13.80;99.90;;;;;;5119639;28;20027;-58
2023/04/14 10:30:53;;;;;;;3.60;0.85;;;13.90;99.90;;;;;;5118528;28;20035;-60
2023/04/14 10:33:19;;;;;;;2.53;0.52;;;14.20;94.50;;;;;;5119211;28;20114;-58
2023/04/14 10:35:49;;;;;;;1.77;0.60;;;14.40;1.00;;;;;;5119090;27;20110;-58
2023/04/14 10:38:15;;;;;;;1.75;0.70;;;14.50;1.00;;;;;;5119213;28;20300;-59
2023/04/14 10:40:45;;;;;;;3.03;0.60;;;14.40;1.00;;;;;;5119246;28;20028;-58
2023/04/14 10:43:12;;;;;;;1.23;0.50;;;15.00;1.00;;;;;;5118477;28;20053;-59
2023/04/14 10:45:57;;;;;;;1.92;0.70;;;15.70;1.00;;;;;;5118870;28;20051;-59
2023/04/14 10:48:32;;;;;;;1.77;0.60;;;15.50;99.90;;;;;;5118944;28;20419;-59
2023/04/14 10:51:00;;;;;;;3.72;0.70;;;15.60;1.00;;;;;;5118961;28;20028;-59
2023/04/14 10:53:26;;;;;;;1.35;0.50;;;15.60;1.00;;;;;;5118998;28;20039;-59
2023/04/14 10:55:54;;;;;;;1.15;0.57;;;15.60;1.00;;;;;;5117879;28;20032;-59
2023/04/14 10:58:22;;;;;;;3.63;0.70;;;15.90;99.90;;;;;;5118349;28;20114;-59
2023/04/14 11:00:48;;;;;;;3.10;0.80;;;16.50;1.00;;;;;;5119717;28;20419;-59
2023/04/14 11:03:17;;;;;;;1.52;0.50;;;16.00;99.90;;;;;;5119132;28;20069;-59
2023/04/14 11:05:47;;;;;;;1.75;0.60;;;15.50;1.00;;;;;;5118787;28;20034;-58
2023/04/14 11:08:16;;;;;;;2.10;0.75;;;15.10;1.00;;;;;;5118607;28;20043;-59
2023/04/14 11:10:49;;;;;;;2.63;0.90;;;15.60;99.90;;;;;;5118719;28;20024;-60
2023/04/14 11:13:16;;;;;;;3.38;0.77;;;16.60;99.90;;;;;;5118591;28;20026;-58
2023/04/14 11:15:42;;;;;;;2.95;0.75;;;17.50;1.00;;;;;;5118433;28;20093;-58
2023/04/14 11:18:18;;;;;;;3.75;0.82;;;18.00;1.00;;;;;;5118610;28;20016;-58
2023/04/14 11:20:44;;;;;;;1.63;0.73;;;17.50;1.80;;;;;;5118138;28;20019;-58
2023/04/14 11:23:12;;;;;;;3.03;0.98;;;16.70;1.00;;;;;;5118073;28;20418;-58
2023/04/14 11:25:39;;;;;;;2.25;0.75;;;15.90;99.90;;;;;;5117956;28;20109;-58
2023/04/14 11:28:05;;;;;;;2.95;0.88;;;16.50;1.00;;;;;;5100396;28;20055;-59
2023/04/14 11:30:31;;;;;;;1.55;0.73;;;17.10;99.90;;;;;;5117769;28;20028;-59
2023/04/14 11:32:57;;;;;;;3.40;0.80;;;17.40;1.00;;;;;;5118355;28;20035;-59
2023/04/14 11:35:28;;;;;;;2.97;0.90;;;18.10;1.00;;;;;;5118628;28;20047;-59
2023/04/14 11:37:54;;;;;;;3.72;0.98;;;17.30;1.00;;;;;;5117059;28;20049;-59
2023/04/14 11:40:22;;;;;;;2.00;0.85;;;16.90;99.90;;;;;;5117498;28;20404;-58
2023/04/14 11:42:56;;;;;;;2.10;0.65;;;16.90;1.00;;;;;;5116975;28;20028;-61
2023/04/14 11:45:27;;;;;;;2.40;0.70;;;17.30;1.00;;;;;;5117705;28;20127;-59
2023/04/14 11:48:00;;;;;;;2.50;0.80;;;16.60;99.90;;;;;;5117870;28;20270;-59
2023/04/14 11:50:29;;;;;;;1.95;0.70;;;17.40;1.00;;;;;;5117867;28;20019;-59
2023/04/14 11:52:58;;;;;;;4.53;0.80;;;17.00;73.70;;;;;;5117845;28;20019;-60
2023/04/14 11:55:27;;;;;;;2.38;0.70;;;16.30;99.90;;;;;;5117851;28;20062;-58
2023/04/14 11:57:54;;;;;;;3.22;0.88;;;15.70;1.00;;;;;;5117819;28;20035;-58
2023/04/14 12:00:21;;;;;;;3.20;0.93;;;15.40;99.90;;;;;;5118286;28;20027;-58
2023/04/14 12:02:46;;;;;;;3.42;0.65;;;15.00;1.00;;;;;;5117579;28;20039;-59
2023/04/14 12:05:18;;;;;;;2.83;0.73;;;15.00;99.90;;;;;;5117596;28;20028;-58
2023/04/14 12:07:46;;;;;;;1.50;0.57;;;14.60;99.90;;;;;;5099823;28;20101;-59
2023/04/14 12:10:12;;;;;;;2.00;0.63;;;14.40;1.00;;;;;;5099716;28;20277;-59
2023/04/14 12:12:38;;;;;;;1.42;0.60;;;15.50;1.00;;;;;;5117743;28;20087;-59
2023/04/14 12:15:04;;;;;;;1.88;0.60;;;15.90;99.90;;;;;;5117212;28;20031;-59
2023/04/14 12:17:30;;;;;;;2.85;0.68;;;15.60;99.90;;;;;;5099719;28;20118;-58
2023/04/14 12:19:56;;;;;;;1.55;0.70;;;14.90;1.00;;;;;;5117437;28;20032;-58
2023/04/14 12:22:27;;;;;;;4.05;0.82;;;14.70;99.90;;;;;;5117897;28;20031;-58
2023/04/14 12:24:54;;;;;;;1.60;0.63;;;14.90;1.00;;;;;;5116671;28;20352;-57
2023/04/14 12:27:25;;;;;;;2.58;0.50;;;14.70;99.90;;;;;;5099616;28;20434;-59
2023/04/14 12:29:51;;;;;;;1.48;0.60;;;15.20;99.90;;;;;;5117072;28;20024;-59
2023/04/14 12:32:17;;;;;;;1.45;0.60;;;15.20;99.90;;;;;;5117236;28;20122;-59
2023/04/14 12:34:56;;;;;;;3.42;0.63;;;15.70;1.00;;;;;;5117131;28;20281;-59
2023/04/14 12:37:26;;;;;;;2.28;0.60;;;16.70;99.90;;;;;;5117522;28;20208;-59
2023/04/14 12:39:57;;;;;;;3.72;0.80;;;17.20;1.00;;;;;;5116772;28;20019;-59
2023/04/14 12:42:24;;;;;;;1.35;0.40;;;17.20;1.00;;;;;;5116089;28;20347;-58
2023/04/14 12:45:00;;;;;;;1.05;0.50;;;17.60;23.90;;;;;;5116877;28;20367;-59
2023/04/14 12:47:33;;;;;;;1.25;0.43;;;18.00;1.00;;;;;;5117745;28;20040;-58
2023/04/14 12:50:23;;;;;;;1.05;0.50;;;17.70;1.00;;;;;;5121383;28;20059;-59
2023/04/14 12:52:49;;;;;;;2.33;0.50;;;17.60;6.10;;;;;;5121290;28;20023;-59
2023/04/14 12:55:23;;;;;;;2.30;0.50;;;18.00;1.00;;;;;;5120375;28;20034;-60
2023/04/14 12:57:53;;;;;;;2.10;0.60;;;18.20;99.90;;;;;;5121303;28;20032;-58
2023/04/14 13:00:21;;;;;;;1.88;0.65;;;17.90;1.00;;;;;;5120906;28;20049;-58
2023/04/14 13:02:47;;;;;;;1.90;0.70;;;18.20;1.00;;;;;;5121147;28;20031;-58